Aviation Digital Data Service (ADDS)

Output produced by METARs form (2051 UTC 24 June 2018)
found at http://www.aviationweather.gov/adds/metars/
 
EYKA 242050Z 26002KT 9999 -SHRA BKN008 OVC017CB 12/11 Q1012
TAF EYKA 241700Z 2418/2518 VRB05KT 9000 BKN025 
     TEMPO 2418/2422 4000 -TSRA SCT005 BKN015CB 
     TEMPO 2422/2505 3000 -RA BR BKN006 
     PROB40 
     TEMPO 2500/2505 0600 FG VV002 
     TEMPO 2510/2518 3000 TSRA BKN005 BKN015CB
       
EYPA 242050Z VRB02KT 6000 -RA OVC026 11/11 Q1012
TAF COR EYPA 241719Z 2418/2518 VRB05KT 5000 -RA BR BKN010 OVC020 
     TEMPO 2418/2509 3000 SHRA BKN005 BKN015CB 
     FM250900 33015KT 9000 BKN030 
     TEMPO 2512/2518 -SHRA BKN015CB
       
EYSA 242020Z 25006KT 9999 FEW009 BKN016 OVC021 10/09 Q1012 WHT TEMPO SCT008 BKN017 GRN
TAF EYSA 242000Z 2421/2506 VRB05KT 9000 BKN025 
     TEMPO 2421/2501 5000 -TSRA SCT005 BKN015CB 
     TEMPO 2501/2505 3000 BR BKN005
       
EYVI 242050Z VRB01KT 9999 SCT014CB BKN150 11/10 Q1012 NOSIG
TAF EYVI 241700Z 2418/2518 VRB05KT 9000 BKN025 
     TEMPO 2418/2421 4000 -TSRA SCT005 BKN015CB 
     TEMPO 2421/2502 3000 BR BKN005 
     PROB40 
     TEMPO 2421/2502 0600 FG VV002 
     TEMPO 2502/2510 5000 -RA BR BKN005 
     TEMPO 2510/2518 20015KT 3000 TSRA SCT005 BKN015CB